createdAt,value
2023-03-16T00:02:06.739Z,100.00
2023-03-16T00:04:37.844Z,100.00
2023-03-16T00:07:09.510Z,100.00
2023-03-16T00:09:40.836Z,100.00
2023-03-16T00:12:16.055Z,100.00
2023-03-16T00:14:44.945Z,100.00
2023-03-16T00:17:20.363Z,100.00
2023-03-16T00:19:55.192Z,100.00
2023-03-16T00:22:28.125Z,100.00
2023-03-16T00:24:55.273Z,100.00
2023-03-16T00:27:23.548Z,100.00
2023-03-16T00:29:56.144Z,100.00
2023-03-16T00:32:28.375Z,100.00
2023-03-16T00:34:55.772Z,100.00
2023-03-16T00:37:23.722Z,100.00
2023-03-16T00:39:51.661Z,100.00
2023-03-16T00:42:19.616Z,100.00
2023-03-16T00:44:46.863Z,100.00
2023-03-16T00:47:14.728Z,100.00
2023-03-16T00:49:44.641Z,100.00
2023-03-16T00:52:15.870Z,100.00
2023-03-16T00:54:43.622Z,100.00
2023-03-16T00:57:12.488Z,100.00
2023-03-16T00:59:39.556Z,100.00
2023-03-16T01:02:08.000Z,100.00
2023-03-16T01:04:36.499Z,100.00
2023-03-16T01:07:06.867Z,100.00
2023-03-16T01:09:36.972Z,100.00
2023-03-16T01:12:10.225Z,100.00
2023-03-16T01:14:37.562Z,100.00
2023-03-16T01:17:08.370Z,100.00
2023-03-16T01:19:37.878Z,100.00
2023-03-16T01:22:09.833Z,100.00
2023-03-16T01:24:37.420Z,100.00
2023-03-16T01:27:05.365Z,100.00
2023-03-16T01:29:33.122Z,100.00
2023-03-16T01:32:01.223Z,100.00
2023-03-16T01:34:28.667Z,100.00
2023-03-16T01:36:55.845Z,100.00
2023-03-16T01:39:22.436Z,100.00
2023-03-16T01:41:49.244Z,100.00
2023-03-16T01:44:20.168Z,100.00
2023-03-16T01:46:47.982Z,100.00
2023-03-16T01:49:16.687Z,100.00
2023-03-16T01:51:43.821Z,100.00
2023-03-16T01:54:20.155Z,100.00
2023-03-16T01:57:15.509Z,100.00
2023-03-16T01:59:49.289Z,100.00
2023-03-16T02:02:21.546Z,100.00
2023-03-16T02:05:07.172Z,100.00
2023-03-16T02:07:44.643Z,100.00
2023-03-16T02:10:14.554Z,100.00
2023-03-16T02:12:41.444Z,100.00
2023-03-16T02:15:08.771Z,100.00
2023-03-16T02:17:36.504Z,100.00
2023-03-16T02:20:06.073Z,100.00
2023-03-16T02:22:36.287Z,100.00
2023-03-16T02:25:03.515Z,100.00
2023-03-16T02:27:42.073Z,100.00
2023-03-16T02:30:13.905Z,100.00
2023-03-16T02:32:41.352Z,100.00
2023-03-16T02:35:09.096Z,100.00
2023-03-16T02:37:36.638Z,100.00
2023-03-16T02:40:17.004Z,100.00
2023-03-16T02:42:43.906Z,100.00
2023-03-16T02:45:10.826Z,100.00
2023-03-16T02:47:45.768Z,100.00
2023-03-16T02:50:13.061Z,100.00
2023-03-16T02:52:39.793Z,100.00
2023-03-16T02:55:07.515Z,100.00
2023-03-16T02:57:34.680Z,100.00
2023-03-16T03:00:01.521Z,100.00
2023-03-16T03:02:28.174Z,100.00
2023-03-16T03:04:55.935Z,100.00
2023-03-16T03:07:22.541Z,100.00
2023-03-16T03:09:49.134Z,100.00
2023-03-16T03:12:15.729Z,100.00
2023-03-16T03:14:42.386Z,100.00
2023-03-16T03:17:10.460Z,100.00
2023-03-16T03:19:37.372Z,100.00
2023-03-16T03:22:06.532Z,100.00
2023-03-16T03:24:34.562Z,100.00
2023-03-16T03:27:05.769Z,100.00
2023-03-16T03:29:36.393Z,100.00
2023-03-16T03:32:06.623Z,100.00
2023-03-16T03:34:33.322Z,100.00
2023-03-16T03:37:00.076Z,100.00
2023-03-16T03:39:26.710Z,100.00
2023-03-16T03:41:55.419Z,100.00
2023-03-16T03:44:23.015Z,100.00
2023-03-16T03:46:50.189Z,100.00
2023-03-16T03:49:19.157Z,100.00
2023-03-16T03:51:47.209Z,100.00
2023-03-16T03:54:13.821Z,100.00
2023-03-16T03:56:40.613Z,100.00
2023-03-16T03:59:07.312Z,100.00
2023-03-16T04:01:33.990Z,100.00
2023-03-16T04:04:00.699Z,100.00
2023-03-16T04:06:28.019Z,100.00
2023-03-16T04:08:54.787Z,100.00
2023-03-16T04:11:21.597Z,100.00
2023-03-16T04:13:48.255Z,100.00
2023-03-16T04:16:16.376Z,100.00
2023-03-16T04:18:43.299Z,100.00
2023-03-16T04:21:15.984Z,100.00
2023-03-16T04:23:43.847Z,100.00
2023-03-16T04:26:11.189Z,100.00
2023-03-16T04:28:37.882Z,100.00
2023-03-16T04:31:07.268Z,100.00
2023-03-16T04:33:35.421Z,100.00
2023-03-16T04:36:02.754Z,100.00
2023-03-16T04:38:30.784Z,100.00
2023-03-16T04:40:58.455Z,100.00
2023-03-16T04:43:25.223Z,100.00
2023-03-16T04:45:51.994Z,100.00
2023-03-16T04:48:18.827Z,100.00
2023-03-16T04:50:47.341Z,100.00
2023-03-16T04:53:14.172Z,100.00
2023-03-16T04:55:41.945Z,100.00
2023-03-16T04:58:08.553Z,100.00
2023-03-16T05:00:35.179Z,100.00
2023-03-16T05:03:02.816Z,100.00
2023-03-16T05:05:29.810Z,100.00
2023-03-16T05:07:56.631Z,100.00
2023-03-16T05:10:23.469Z,100.00
2023-03-16T05:12:50.333Z,100.00
2023-03-16T05:15:17.002Z,100.00
2023-03-16T05:17:43.624Z,100.00
2023-03-16T05:20:25.999Z,100.00
2023-03-16T05:22:52.601Z,100.00
2023-03-16T05:25:20.538Z,100.00
2023-03-16T05:27:49.766Z,100.00
2023-03-16T05:30:17.601Z,100.00
2023-03-16T05:32:45.081Z,100.00
2023-03-16T05:35:13.590Z,100.00
2023-03-16T05:37:41.703Z,100.00
2023-03-16T05:40:14.276Z,100.00
2023-03-16T05:42:41.021Z,100.00
2023-03-16T05:45:08.307Z,100.00
2023-03-16T05:47:37.304Z,100.00
2023-03-16T05:50:05.831Z,100.00
2023-03-16T05:52:33.856Z,100.00
2023-03-16T05:55:00.703Z,100.00
2023-03-16T05:57:27.369Z,100.00
2023-03-16T05:59:54.648Z,100.00
2023-03-16T06:02:21.385Z,100.00
2023-03-16T06:04:48.000Z,100.00
2023-03-16T06:07:14.682Z,100.00
2023-03-16T06:09:41.303Z,100.00
2023-03-16T06:12:08.044Z,100.00
2023-03-16T06:14:34.720Z,100.00
2023-03-16T06:17:01.377Z,100.00
2023-03-16T06:19:27.992Z,100.00
2023-03-16T06:21:54.687Z,100.00
2023-03-16T06:24:21.389Z,100.00
2023-03-16T06:26:47.988Z,100.00
2023-03-16T06:29:14.844Z,100.00
2023-03-16T06:31:41.605Z,100.00
2023-03-16T06:34:08.327Z,100.00
2023-03-16T06:36:35.459Z,100.00
2023-03-16T06:39:02.133Z,100.00
2023-03-16T06:41:28.703Z,100.00
2023-03-16T06:43:55.368Z,100.00
2023-03-16T06:46:22.138Z,100.00
2023-03-16T06:48:48.899Z,100.00
2023-03-16T06:51:16.835Z,100.00
2023-03-16T06:53:43.641Z,100.00
2023-03-16T06:56:10.235Z,100.00
2023-03-16T06:58:36.930Z,100.00
2023-03-16T07:01:04.764Z,100.00
2023-03-16T07:03:31.850Z,100.00
2023-03-16T07:05:58.552Z,100.00
2023-03-16T07:08:25.278Z,100.00
2023-03-16T07:10:52.253Z,100.00
2023-03-16T07:13:18.882Z,100.00
2023-03-16T07:15:45.479Z,100.00
2023-03-16T07:18:12.460Z,100.00
2023-03-16T07:20:39.159Z,100.00
2023-03-16T07:23:05.795Z,100.00
2023-03-16T07:25:32.435Z,100.00
2023-03-16T07:27:59.104Z,100.00
2023-03-16T07:30:25.855Z,100.00
2023-03-16T07:32:53.264Z,100.00
2023-03-16T07:35:20.229Z,100.00
2023-03-16T07:37:46.885Z,100.00
2023-03-16T07:40:14.511Z,100.00
2023-03-16T07:42:41.170Z,100.00
2023-03-16T07:45:08.538Z,100.00
2023-03-16T07:47:35.510Z,100.00
2023-03-16T07:50:02.333Z,100.00
2023-03-16T07:52:29.039Z,100.00
2023-03-16T07:54:55.793Z,100.00
2023-03-16T07:57:22.685Z,100.00
2023-03-16T07:59:49.268Z,100.00
2023-03-16T08:02:18.403Z,100.00
2023-03-16T08:04:46.415Z,100.00
2023-03-16T08:07:14.808Z,100.00
2023-03-16T08:09:41.959Z,100.00
2023-03-16T08:12:09.781Z,100.00
2023-03-16T08:14:37.284Z,100.00
2023-03-16T08:17:05.206Z,100.00
2023-03-16T08:19:32.612Z,100.00
2023-03-16T08:22:02.098Z,100.00
2023-03-16T08:24:29.771Z,100.00
2023-03-16T08:26:57.601Z,100.00
2023-03-16T08:29:25.244Z,100.00
2023-03-16T08:31:57.939Z,100.00
2023-03-16T08:34:25.093Z,100.00
2023-03-16T08:36:51.819Z,100.00
2023-03-16T08:39:18.547Z,100.00
2023-03-16T08:41:46.110Z,100.00
2023-03-16T08:44:13.142Z,100.00
2023-03-16T08:46:40.879Z,100.00
2023-03-16T08:49:08.833Z,100.00
2023-03-16T08:51:35.481Z,100.00
2023-03-16T08:54:04.820Z,100.00
2023-03-16T08:56:32.458Z,100.00
2023-03-16T08:58:59.890Z,100.00
2023-03-16T09:01:26.829Z,100.00
2023-03-16T09:03:53.634Z,100.00
2023-03-16T09:06:20.477Z,100.00
2023-03-16T09:08:47.838Z,100.00
2023-03-16T09:11:17.778Z,100.00
2023-03-16T09:13:44.853Z,100.00
2023-03-16T09:16:13.081Z,100.00
2023-03-16T09:18:40.614Z,100.00
2023-03-16T09:21:10.458Z,100.00
2023-03-16T09:23:41.885Z,100.00
2023-03-16T09:26:09.626Z,100.00
2023-03-16T09:28:38.852Z,100.00
2023-03-16T09:31:06.324Z,100.00
2023-03-16T09:33:34.357Z,100.00
2023-03-16T09:36:01.922Z,100.00
2023-03-16T09:38:28.948Z,100.00
2023-03-16T09:41:03.067Z,100.00
2023-03-16T09:43:38.703Z,100.00
2023-03-16T09:46:08.106Z,100.00
2023-03-16T09:48:37.670Z,97.64
2023-03-16T09:51:08.217Z,96.63
2023-03-16T09:53:39.149Z,97.11
2023-03-16T09:56:22.918Z,95.40
2023-03-16T09:58:49.794Z,92.47
2023-03-16T10:01:43.210Z,94.35
2023-03-16T10:04:17.022Z,90.27
2023-03-16T10:06:54.567Z,90.13
2023-03-16T10:09:23.802Z,88.66
2023-03-16T10:11:56.880Z,89.01
2023-03-16T10:14:30.861Z,88.12
2023-03-16T10:17:14.491Z,87.54
2023-03-16T10:19:47.498Z,88.64
2023-03-16T10:22:26.622Z,90.64
2023-03-16T10:25:08.711Z,89.79
2023-03-16T10:27:38.423Z,88.46
2023-03-16T10:30:14.682Z,87.34
2023-03-16T10:32:41.429Z,86.83
2023-03-16T10:35:28.694Z,84.82
2023-03-16T10:37:56.776Z,81.64
2023-03-16T10:40:23.561Z,79.14
2023-03-16T10:42:50.410Z,76.88
2023-03-16T10:45:25.466Z,75.89
2023-03-16T10:47:52.179Z,72.73
2023-03-16T10:50:25.243Z,72.96
2023-03-16T10:52:53.309Z,74.75
2023-03-16T10:55:24.736Z,74.41
2023-03-16T10:57:55.131Z,74.70
2023-03-16T11:00:36.644Z,73.83
2023-03-16T11:03:25.930Z,75.14
2023-03-16T11:06:00.881Z,74.97
2023-03-16T11:08:32.302Z,72.34
2023-03-16T11:11:08.473Z,70.72
2023-03-16T11:13:38.071Z,71.92
2023-03-16T11:16:13.917Z,74.11
2023-03-16T11:18:47.745Z,74.06
2023-03-16T11:21:25.805Z,74.35
2023-03-16T11:23:56.198Z,75.30
2023-03-16T11:26:34.023Z,76.76
2023-03-16T11:29:09.454Z,77.64
2023-03-16T11:31:46.166Z,78.32
2023-03-16T11:34:17.704Z,79.01
2023-03-16T11:36:53.498Z,79.34
2023-03-16T11:39:42.758Z,79.92
2023-03-16T11:42:24.135Z,80.43
2023-03-16T11:45:10.103Z,80.71
2023-03-16T11:47:58.238Z,80.93
2023-03-16T11:50:51.656Z,81.08
2023-03-16T11:53:27.506Z,81.41
2023-03-16T11:56:02.065Z,81.56
2023-03-16T11:58:57.961Z,81.71
2023-03-16T12:02:00.764Z,81.96
2023-03-16T12:05:09.800Z,81.95
2023-03-16T12:08:17.648Z,82.15
2023-03-16T12:10:56.456Z,82.59
2023-03-16T12:14:01.502Z,82.38
2023-03-16T12:16:49.082Z,82.83
2023-03-16T12:19:42.623Z,82.90
2023-03-16T12:22:24.046Z,82.62
2023-03-16T12:24:50.899Z,82.44
2023-03-16T12:27:27.212Z,82.13
2023-03-16T12:30:20.978Z,81.75
2023-03-16T12:33:08.872Z,81.30
2023-03-16T12:35:48.332Z,80.89
2023-03-16T12:38:37.951Z,81.15
2023-03-16T12:41:21.365Z,81.43
2023-03-16T12:43:51.156Z,81.11
2023-03-16T12:46:56.618Z,80.61
2023-03-16T12:49:28.817Z,80.84
2023-03-16T12:52:01.616Z,80.38
2023-03-16T12:54:28.593Z,80.07
2023-03-16T12:57:08.693Z,80.08
2023-03-16T12:59:45.709Z,79.66
2023-03-16T13:02:31.466Z,79.33
2023-03-16T13:05:30.147Z,79.85
2023-03-16T13:08:16.535Z,79.78
2023-03-16T13:11:01.824Z,79.68
2023-03-16T13:13:28.911Z,79.52
2023-03-16T13:16:07.052Z,79.76
2023-03-16T13:18:45.272Z,79.76
2023-03-16T13:21:37.261Z,79.76
2023-03-16T13:24:18.786Z,79.37
2023-03-16T13:27:06.620Z,79.39
2023-03-16T13:29:34.004Z,79.25
2023-03-16T13:32:11.511Z,79.16
2023-03-16T13:34:48.571Z,78.58
2023-03-16T13:37:18.119Z,78.79
2023-03-16T13:40:01.873Z,78.57
2023-03-16T13:42:33.616Z,78.32
2023-03-16T13:45:12.930Z,78.39
2023-03-16T13:47:43.236Z,78.28
2023-03-16T13:50:14.188Z,77.75
2023-03-16T13:52:44.195Z,77.56
2023-03-16T13:55:16.934Z,76.91
2023-03-16T13:57:45.454Z,76.96
2023-03-16T14:00:20.659Z,76.23
2023-03-16T14:02:52.160Z,76.01
2023-03-16T14:05:22.794Z,75.44
2023-03-16T14:07:53.814Z,75.11
2023-03-16T14:10:23.052Z,74.47
2023-03-16T14:12:58.773Z,74.78
2023-03-16T14:15:28.075Z,74.61
2023-03-16T14:18:05.063Z,74.20
2023-03-16T14:20:34.985Z,73.94
2023-03-16T14:23:20.535Z,73.71
2023-03-16T14:25:49.314Z,73.67
2023-03-16T14:28:19.194Z,73.66
2023-03-16T14:31:04.053Z,73.87
2023-03-16T14:33:37.820Z,73.09
2023-03-16T14:36:13.097Z,73.24
2023-03-16T14:38:41.802Z,73.13
2023-03-16T14:41:09.628Z,72.79
2023-03-16T14:43:40.320Z,72.96
2023-03-16T14:46:08.595Z,72.40
2023-03-16T14:48:35.931Z,71.76
2023-03-16T14:51:04.414Z,71.80
2023-03-16T14:53:31.838Z,71.56
2023-03-16T14:55:59.624Z,71.21
2023-03-16T14:58:26.644Z,70.93
2023-03-16T15:00:55.316Z,70.89
2023-03-16T15:03:30.394Z,70.22
2023-03-16T15:05:57.128Z,70.07
2023-03-16T15:08:27.526Z,69.83
2023-03-16T15:11:00.987Z,69.86
2023-03-16T15:13:57.014Z,69.53
2023-03-16T15:16:24.046Z,69.03
2023-03-16T15:18:51.936Z,69.04
2023-03-16T15:21:25.124Z,68.68
2023-03-16T15:23:52.348Z,68.60
2023-03-16T15:26:28.611Z,68.62
2023-03-16T15:28:57.030Z,68.62
2023-03-16T15:31:24.384Z,68.74
2023-03-16T15:33:51.063Z,68.27
2023-03-16T15:36:21.057Z,68.16
2023-03-16T15:38:50.504Z,68.47
2023-03-16T15:41:17.267Z,69.21
2023-03-16T15:43:45.829Z,69.72
2023-03-16T15:46:12.993Z,70.05
2023-03-16T15:48:39.965Z,70.09
2023-03-16T15:51:07.678Z,69.85
2023-03-16T15:53:41.505Z,70.37
2023-03-16T15:56:13.142Z,70.49
2023-03-16T15:58:43.458Z,70.45
2023-03-16T16:01:21.746Z,70.72
2023-03-16T16:03:50.227Z,70.99
2023-03-16T16:06:17.475Z,71.53
2023-03-16T16:08:44.499Z,71.50
2023-03-16T16:11:25.170Z,71.14
2023-03-16T16:13:52.060Z,71.07
2023-03-16T16:16:20.188Z,71.05
2023-03-16T16:18:48.372Z,70.76
2023-03-16T16:21:23.207Z,70.50
2023-03-16T16:23:51.475Z,70.54
2023-03-16T16:26:27.916Z,70.11
2023-03-16T16:28:58.811Z,70.16
2023-03-16T16:31:28.007Z,70.68
2023-03-16T16:33:54.680Z,70.58
2023-03-16T16:36:22.084Z,70.73
2023-03-16T16:38:50.100Z,70.48
2023-03-16T16:41:38.461Z,70.31
2023-03-16T16:44:13.622Z,70.55
2023-03-16T16:46:42.500Z,70.61
2023-03-16T16:49:19.614Z,70.37
2023-03-16T16:51:46.418Z,70.48
2023-03-16T16:54:18.793Z,70.33
2023-03-16T16:56:46.634Z,70.44
2023-03-16T16:59:23.042Z,70.31
2023-03-16T17:01:57.527Z,70.39
2023-03-16T17:04:27.264Z,70.31
2023-03-16T17:06:58.721Z,70.19
2023-03-16T17:09:27.253Z,70.32
2023-03-16T17:11:56.207Z,70.48
2023-03-16T17:14:24.006Z,70.78
2023-03-16T17:16:51.832Z,70.92
2023-03-16T17:19:24.573Z,71.17
2023-03-16T17:21:52.666Z,71.36
2023-03-16T17:24:19.404Z,71.58
2023-03-16T17:26:49.409Z,71.69
2023-03-16T17:29:25.644Z,71.92
2023-03-16T17:31:52.961Z,71.97
2023-03-16T17:34:25.371Z,72.33
2023-03-16T17:36:52.726Z,72.40
2023-03-16T17:39:21.184Z,72.64
2023-03-16T17:42:03.044Z,72.91
2023-03-16T17:44:50.849Z,73.05
2023-03-16T17:47:23.239Z,73.31
2023-03-16T17:49:50.762Z,73.53
2023-03-16T17:52:25.992Z,73.65
2023-03-16T17:54:53.993Z,73.74
2023-03-16T17:57:29.222Z,73.84
2023-03-16T17:59:56.138Z,74.04
2023-03-16T18:02:49.768Z,74.15
2023-03-16T18:05:22.712Z,74.61
2023-03-16T18:07:50.532Z,74.17
2023-03-16T18:10:26.352Z,74.61
2023-03-16T18:13:06.726Z,74.98
2023-03-16T18:15:36.606Z,74.96
2023-03-16T18:18:07.642Z,75.00
2023-03-16T18:20:36.632Z,75.04
2023-03-16T18:23:19.030Z,75.34
2023-03-16T18:25:46.063Z,75.53
2023-03-16T18:28:13.994Z,75.49
2023-03-16T18:30:47.400Z,75.57
2023-03-16T18:33:36.392Z,75.83
2023-03-16T18:36:07.968Z,76.16
2023-03-16T18:38:40.236Z,76.38
2023-03-16T18:41:17.408Z,76.77
2023-03-16T18:43:44.483Z,76.56
2023-03-16T18:46:32.003Z,76.75
2023-03-16T18:49:13.568Z,76.77
2023-03-16T18:51:41.781Z,76.76
2023-03-16T18:54:45.488Z,77.31
2023-03-16T18:57:20.293Z,77.38
2023-03-16T18:59:47.202Z,77.46
2023-03-16T19:02:38.884Z,77.72
2023-03-16T19:05:12.490Z,77.74
2023-03-16T19:08:01.815Z,78.22
2023-03-16T19:10:32.305Z,77.98
2023-03-16T19:12:59.525Z,78.17
2023-03-16T19:15:34.795Z,78.29
2023-03-16T19:18:01.459Z,78.41
2023-03-16T19:20:30.639Z,78.52
2023-03-16T19:23:06.484Z,78.81
2023-03-16T19:25:37.333Z,78.72
2023-03-16T19:28:06.367Z,78.85
2023-03-16T19:30:34.911Z,78.95
2023-03-16T19:33:02.056Z,78.93
2023-03-16T19:35:48.606Z,79.11
2023-03-16T19:38:16.728Z,79.16
2023-03-16T19:40:44.547Z,79.49
2023-03-16T19:43:17.640Z,79.36
2023-03-16T19:45:45.254Z,79.62
2023-03-16T19:48:16.669Z,79.74
2023-03-16T19:50:43.360Z,79.53
2023-03-16T19:53:21.908Z,79.66
2023-03-16T19:55:51.074Z,79.80
2023-03-16T19:58:35.269Z,80.10
2023-03-16T20:01:03.043Z,79.91
2023-03-16T20:03:33.409Z,79.97
2023-03-16T20:06:00.117Z,80.24
2023-03-16T20:08:29.118Z,80.07
2023-03-16T20:11:08.722Z,80.18
2023-03-16T20:13:36.315Z,80.17
2023-03-16T20:16:03.590Z,80.11
2023-03-16T20:18:30.497Z,80.30
2023-03-16T20:20:57.588Z,80.49
2023-03-16T20:23:29.370Z,80.39
2023-03-16T20:26:01.949Z,80.44
2023-03-16T20:28:36.975Z,80.75
2023-03-16T20:31:22.145Z,80.99
2023-03-16T20:33:50.477Z,80.79
2023-03-16T20:36:17.127Z,81.03
2023-03-16T20:38:44.343Z,81.22
2023-03-16T20:41:28.621Z,81.38
2023-03-16T20:43:56.443Z,81.45
2023-03-16T20:46:29.203Z,81.71
2023-03-16T20:48:56.622Z,82.05
2023-03-16T20:51:23.545Z,82.32
2023-03-16T20:53:51.368Z,82.39
2023-03-16T20:56:23.814Z,82.48
2023-03-16T20:58:51.683Z,82.69
2023-03-16T21:01:21.450Z,82.59
2023-03-16T21:03:55.232Z,82.79
2023-03-16T21:06:30.680Z,82.99
2023-03-16T21:09:00.958Z,83.31
2023-03-16T21:11:30.057Z,83.30
2023-03-16T21:13:56.970Z,83.45
2023-03-16T21:16:23.843Z,83.54
2023-03-16T21:18:50.981Z,83.60
2023-03-16T21:21:18.886Z,83.67
2023-03-16T21:23:46.208Z,84.11
2023-03-16T21:26:20.327Z,83.94
2023-03-16T21:28:56.573Z,84.08
2023-03-16T21:31:24.363Z,84.14
2023-03-16T21:33:52.030Z,84.40
2023-03-16T21:36:21.910Z,84.27
2023-03-16T21:38:50.893Z,84.47
2023-03-16T21:41:17.798Z,84.56
2023-03-16T21:43:44.845Z,84.61
2023-03-16T21:46:19.799Z,84.82
2023-03-16T21:48:49.724Z,85.06
2023-03-16T21:51:19.916Z,85.09
2023-03-16T21:53:48.659Z,85.30
2023-03-16T21:56:22.566Z,85.33
2023-03-16T21:58:50.525Z,85.40
2023-03-16T22:01:27.741Z,85.54
2023-03-16T22:04:02.376Z,85.60
2023-03-16T22:06:29.238Z,85.75
2023-03-16T22:08:57.617Z,85.84
2023-03-16T22:11:29.495Z,86.01
2023-03-16T22:13:57.789Z,86.30
2023-03-16T22:16:26.412Z,86.34
2023-03-16T22:18:56.394Z,86.75
2023-03-16T22:21:37.685Z,86.79
2023-03-16T22:24:17.650Z,86.90
2023-03-16T22:26:44.665Z,86.82
2023-03-16T22:29:23.835Z,87.13
2023-03-16T22:31:53.812Z,87.15
2023-03-16T22:34:32.203Z,87.08
2023-03-16T22:37:00.755Z,86.94
2023-03-16T22:39:29.451Z,87.12
2023-03-16T22:41:56.052Z,87.15
2023-03-16T22:44:23.808Z,87.18
2023-03-16T22:46:51.076Z,87.43
2023-03-16T22:49:24.920Z,87.62
2023-03-16T22:51:55.553Z,87.43
2023-03-16T22:54:26.054Z,87.43
2023-03-16T22:56:53.190Z,87.61
2023-03-16T22:59:23.880Z,87.60
2023-03-16T23:01:50.736Z,87.42
2023-03-16T23:04:30.218Z,87.55
2023-03-16T23:06:57.389Z,87.59
2023-03-16T23:09:24.639Z,87.70
2023-03-16T23:11:54.700Z,87.76
2023-03-16T23:14:37.053Z,87.73
2023-03-16T23:17:03.591Z,87.86
2023-03-16T23:19:34.077Z,87.55
2023-03-16T23:22:03.565Z,87.65
2023-03-16T23:24:31.098Z,87.63
2023-03-16T23:26:58.157Z,87.76
2023-03-16T23:29:26.315Z,87.76
2023-03-16T23:31:54.780Z,87.79
2023-03-16T23:34:23.810Z,87.84
2023-03-16T23:36:51.468Z,87.97
2023-03-16T23:39:18.685Z,87.88
2023-03-16T23:41:48.535Z,88.06
2023-03-16T23:44:22.346Z,88.06
2023-03-16T23:46:49.584Z,87.99
2023-03-16T23:49:22.441Z,88.17
2023-03-16T23:51:50.303Z,88.36
2023-03-16T23:54:23.484Z,88.43
2023-03-16T23:56:50.994Z,88.62
2023-03-16T23:59:19.222Z,88.74
